ENNA Airport Information

Runway Information
Runway 17 Length 9147 ft width 148 ft
Elevation 15 ft Threshold 302 ft Heading 176
Runway 35 Length 9147 ft Width 148 ft
Elevation 25 ft Threshold 302 ft Heading 356
Airport Frequencies
Type TWR Name TWR Frequency 118.05 MHZ
Airport Navaids
Type VOR-DME Name Banak Frequency 114400 KHZ
Type TACAN Name Banak Frequency 111000 KHZ
Type NDB Name Banak Frequency 345 KHZ
Airport Weather Information & NOTAM
ADDS - METARS form results

(0809 UTC 05 August 2020)
Data provider http://aviationweather.gov/metar/data/
 
METAR text: ENNA 050750Z 05006KT 9999 SCT007 OVC010 13/11 Q1006 RMK WIND 1800FT VRB03KT
Conditions at: ENNA (BANAK/LAKSELV (A, NO) observed 0750 UTC 05 August 2020
Temperature: 13.0°C (55°F)
Dewpoint: 11.0°C (52°F) [RH = 88%]
Pressure (altimeter): 29.70 inches Hg (1006.0 mb)
Winds: from the NE (50 degrees) at 7 MPH (6 knots; 3.1 m/s)
Visibility: 6 or more miles (10+ km)
Ceiling: 1000 feet AGL
Clouds: scattered clouds at 700 feet AGL
overcast cloud deck at 1000 feet AGL
Weather: no significant weather observed at this time

METAR text: ENNA 050720Z 02005KT 9999 OVC007 13/10 Q1006 RMK WIND 1800FT VRB02KT
Conditions at: ENNA (BANAK/LAKSELV (A, NO) observed 0720 UTC 05 August 2020
Temperature: 13.0°C (55°F)
Dewpoint: 10.0°C (50°F) [RH = 82%]
Pressure (altimeter): 29.70 inches Hg (1006.0 mb)
Winds: from the NNE (20 degrees) at 6 MPH (5 knots; 2.6 m/s)
Visibility: 6 or more miles (10+ km)
Ceiling: 700 feet AGL
Clouds: overcast cloud deck at 700 feet AGL
Weather: no significant weather observed at this time

Forecast for: ENNA (BANAK/LAKSELV (A, NO)
Text: TAF ENNA 0506/0606 36008KT 9999 FEW010 BKN030
Forecast period: 0600 UTC 05 August 2020 to 0600 UTC 06 August 2020
Forecast type: FROM: standard forecast or significant change
Winds: from the N (360 degrees) at 9 MPH (8 knots; 4.1 m/s)
Visibility: 6 or more miles 10+ km)
Ceiling: 3000 feet AGL
Clouds: few clouds at 1000 feet AGL
broken clouds at 3000 feet AGL
Weather: no significant weather forecast for this period
Text: TEMPO 0506/0509 BKN006
Forecast period: 0600 to 0900 UTC 05 August 2020
Forecast type: TEMPORARY: The following changes expected for less than half the time period
Visibility: missing
Ceiling: 600 feet AGL
Clouds: broken clouds at 600 feet AGL
Weather: no significant weather forecast for this period